createdAt,value
2017-03-23T00:00:26.692Z,17.98
2017-03-23T00:01:25.559Z,18.53
2017-03-23T00:02:24.375Z,19.13
2017-03-23T00:03:23.167Z,17.93
2017-03-23T00:04:22.267Z,16.75
2017-03-23T00:05:21.466Z,16.52
2017-03-23T00:06:22.065Z,17.52
2017-03-23T00:07:20.962Z,17.93
2017-03-23T00:08:20.239Z,18.27
2017-03-23T00:09:19.480Z,17.12
2017-03-23T00:10:18.813Z,17.97
2017-03-23T00:11:17.297Z,17.43
2017-03-23T00:12:16.166Z,18.97
2017-03-23T00:13:15.654Z,18.88
2017-03-23T00:14:14.083Z,19.90
2017-03-23T00:15:12.889Z,21.40
2017-03-23T00:16:11.991Z,20.33
2017-03-23T00:17:10.463Z,17.92
2017-03-23T00:18:09.279Z,20.23
2017-03-23T00:19:07.717Z,20.30
2017-03-23T00:20:06.567Z,19.87
2017-03-23T00:21:05.435Z,19.62
2017-03-23T00:22:04.654Z,18.97
2017-03-23T00:23:03.503Z,21.50
2017-03-23T00:24:02.311Z,18.25
2017-03-23T00:25:01.160Z,19.18
2017-03-23T00:25:59.599Z,18.75
2017-03-23T00:26:58.573Z,19.98
2017-03-23T00:27:57.778Z,19.40
2017-03-23T00:28:56.637Z,18.12
2017-03-23T00:29:55.583Z,19.68
2017-03-23T00:30:54.458Z,18.32
2017-03-23T00:31:53.340Z,19.72
2017-03-23T00:32:52.224Z,18.55
2017-03-23T00:33:51.419Z,18.92
2017-03-23T00:34:51.182Z,19.38
2017-03-23T00:35:50.072Z,19.80
2017-03-23T00:36:48.571Z,19.48
2017-03-23T00:37:47.416Z,18.58
2017-03-23T00:38:46.286Z,19.30
2017-03-23T00:39:45.480Z,17.92
2017-03-23T00:40:43.940Z,19.02
2017-03-23T00:41:43.069Z,18.62
2017-03-23T00:42:41.878Z,17.75
2017-03-23T00:43:40.723Z,19.45
2017-03-23T00:44:39.632Z,19.07
2017-03-23T00:45:38.384Z,17.72
2017-03-23T00:46:37.155Z,20.43
2017-03-23T00:47:35.959Z,19.70
2017-03-23T00:48:34.743Z,20.02
2017-03-23T00:49:33.131Z,19.98
2017-03-23T00:50:31.610Z,19.40
2017-03-23T00:51:30.843Z,19.60
2017-03-23T00:52:29.616Z,19.15
2017-03-23T00:53:28.632Z,18.00
2017-03-23T00:54:27.418Z,19.00
2017-03-23T00:55:25.792Z,19.43
2017-03-23T00:56:24.573Z,20.02
2017-03-23T00:57:23.743Z,18.67
2017-03-23T00:58:22.559Z,19.72
2017-03-23T00:59:21.345Z,19.10
2017-03-23T01:00:20.161Z,19.50
2017-03-23T01:01:18.947Z,19.57
2017-03-23T01:02:17.712Z,18.98
2017-03-23T01:03:16.796Z,19.55
2017-03-23T01:04:15.621Z,20.92
2017-03-23T01:05:19.860Z,18.30
2017-03-23T01:06:24.075Z,18.25
2017-03-23T01:07:28.221Z,20.72
2017-03-23T01:08:32.602Z,20.23
2017-03-23T01:09:36.707Z,19.12
2017-03-23T01:10:40.983Z,19.80
2017-03-23T01:11:45.161Z,20.03
2017-03-23T01:12:49.331Z,18.72
2017-03-23T01:13:53.920Z,19.38
2017-03-23T01:14:58.136Z,21.40
2017-03-23T01:16:01.991Z,20.07
2017-03-23T01:17:06.216Z,18.77
2017-03-23T01:18:10.298Z,20.85
2017-03-23T01:19:09.522Z,19.53
2017-03-23T01:20:08.303Z,18.62
2017-03-23T01:21:07.075Z,20.18
2017-03-23T01:22:05.964Z,20.13
2017-03-23T01:23:04.786Z,21.43
2017-03-23T01:24:03.566Z,20.03
2017-03-23T01:25:02.681Z,20.93
2017-03-23T01:26:01.485Z,20.00
2017-03-23T01:27:00.292Z,20.45
2017-03-23T01:27:59.055Z,21.40
2017-03-23T01:28:57.827Z,20.40
2017-03-23T01:29:56.628Z,20.00
2017-03-23T01:30:55.375Z,20.37
2017-03-23T01:31:54.149Z,22.58
2017-03-23T01:32:52.892Z,19.98
2017-03-23T01:33:51.259Z,20.93
2017-03-23T01:34:50.046Z,21.63
2017-03-23T01:35:48.419Z,21.53
2017-03-23T01:36:47.525Z,20.98
2017-03-23T01:37:46.267Z,21.80
2017-03-23T01:38:45.161Z,21.68
2017-03-23T01:39:43.931Z,21.88
2017-03-23T01:40:42.730Z,20.30
2017-03-23T01:41:41.545Z,20.60
2017-03-23T01:42:40.923Z,19.92
2017-03-23T01:43:39.759Z,20.70
2017-03-23T01:44:39.489Z,22.13
2017-03-23T01:45:38.341Z,20.65
2017-03-23T01:46:36.752Z,20.55
2017-03-23T01:47:35.908Z,21.62
2017-03-23T01:48:35.120Z,20.87
2017-03-23T01:49:34.037Z,20.13
2017-03-23T01:50:32.464Z,19.77
2017-03-23T01:51:30.898Z,22.28
2017-03-23T01:52:29.673Z,19.92
2017-03-23T01:53:28.453Z,20.50
2017-03-23T01:54:27.276Z,20.55
2017-03-23T01:55:26.169Z,19.08
2017-03-23T01:56:25.079Z,21.38
2017-03-23T01:57:23.521Z,20.93
2017-03-23T01:58:22.725Z,20.83
2017-03-23T01:59:21.588Z,21.20
2017-03-23T02:00:21.639Z,21.03
2017-03-23T02:01:20.055Z,20.82
2017-03-23T02:02:19.009Z,20.20
2017-03-23T02:03:17.871Z,19.62
2017-03-23T02:04:16.700Z,20.62
2017-03-23T02:05:15.571Z,18.53
2017-03-23T02:06:15.507Z,20.12
2017-03-23T02:07:14.305Z,20.93
2017-03-23T02:08:13.466Z,20.12
2017-03-23T02:09:12.692Z,22.10
2017-03-23T02:10:11.623Z,20.87
2017-03-23T02:11:10.523Z,19.98
2017-03-23T02:12:09.783Z,19.57
2017-03-23T02:13:08.625Z,22.33
2017-03-23T02:14:07.459Z,21.72
2017-03-23T02:15:05.964Z,19.85
2017-03-23T02:16:04.883Z,20.65
2017-03-23T02:17:03.716Z,21.57
2017-03-23T02:18:02.879Z,20.37
2017-03-23T02:19:01.664Z,21.15
2017-03-23T02:20:00.133Z,21.98
2017-03-23T02:20:58.999Z,20.60
2017-03-23T02:21:57.434Z,20.05
2017-03-23T02:22:56.210Z,20.82
2017-03-23T02:23:55.318Z,21.90
2017-03-23T02:24:54.179Z,21.65
2017-03-23T02:25:53.068Z,21.15
2017-03-23T02:26:51.954Z,22.05
2017-03-23T02:27:50.872Z,21.67
2017-03-23T02:28:49.755Z,21.87
2017-03-23T02:29:48.964Z,22.38
2017-03-23T02:30:47.785Z,22.22
2017-03-23T02:31:46.694Z,22.12
2017-03-23T02:32:45.559Z,22.27
2017-03-23T02:33:44.423Z,20.93
2017-03-23T02:34:43.275Z,21.62
2017-03-23T02:35:42.361Z,21.47
2017-03-23T02:36:40.736Z,20.33
2017-03-23T02:37:39.561Z,22.78
2017-03-23T02:38:38.340Z,21.33
2017-03-23T02:39:37.120Z,24.05
2017-03-23T02:40:35.907Z,21.67
2017-03-23T02:41:34.596Z,21.82
2017-03-23T02:42:32.979Z,21.87
2017-03-23T02:43:31.387Z,23.98
2017-03-23T02:44:30.152Z,22.88
2017-03-23T02:45:28.940Z,22.17
2017-03-23T02:46:27.756Z,23.07
2017-03-23T02:47:26.904Z,21.73
2017-03-23T02:48:25.684Z,22.10
2017-03-23T02:49:24.462Z,22.88
2017-03-23T02:50:23.387Z,23.37
2017-03-23T02:51:23.872Z,22.43
2017-03-23T02:52:22.711Z,23.10
2017-03-23T02:53:21.818Z,22.22
2017-03-23T02:54:20.234Z,22.80
2017-03-23T02:55:19.383Z,22.28
2017-03-23T02:56:18.167Z,24.75
2017-03-23T02:57:16.957Z,23.27
2017-03-23T02:58:15.723Z,24.03
2017-03-23T02:59:14.805Z,23.50
2017-03-23T03:00:13.681Z,23.38
2017-03-23T03:01:12.464Z,26.00
2017-03-23T03:02:11.217Z,23.67
2017-03-23T03:03:10.009Z,23.45
2017-03-23T03:04:08.791Z,24.15
2017-03-23T03:05:07.977Z,25.27
2017-03-23T03:06:06.746Z,25.40
2017-03-23T03:07:05.535Z,25.30
2017-03-23T03:08:04.351Z,24.65
2017-03-23T03:09:03.903Z,24.62
2017-03-23T03:10:02.734Z,24.63
2017-03-23T03:11:01.871Z,24.43
2017-03-23T03:12:00.648Z,24.03
2017-03-23T03:12:59.493Z,26.15
2017-03-23T03:13:57.906Z,26.87
2017-03-23T03:14:56.671Z,25.45
2017-03-23T03:15:55.492Z,26.32
2017-03-23T03:16:54.267Z,25.97
2017-03-23T03:17:53.060Z,26.02
2017-03-23T03:18:52.161Z,26.10
2017-03-23T03:19:51.022Z,27.43
2017-03-23T03:20:49.411Z,27.40
2017-03-23T03:21:48.174Z,27.93
2017-03-23T03:22:46.896Z,27.40
2017-03-23T03:23:45.696Z,29.28
2017-03-23T03:24:44.479Z,26.75
2017-03-23T03:25:42.827Z,27.67
2017-03-23T03:26:41.599Z,26.72
2017-03-23T03:27:40.387Z,25.65
2017-03-23T03:28:39.463Z,26.22
2017-03-23T03:29:38.247Z,23.12
2017-03-23T03:30:37.020Z,28.25
2017-03-23T03:31:35.854Z,25.15
2017-03-23T03:32:34.635Z,25.33
2017-03-23T03:33:33.457Z,25.05
2017-03-23T03:34:32.573Z,23.88
2017-03-23T03:35:31.384Z,26.37
2017-03-23T03:36:30.163Z,25.22
2017-03-23T03:37:29.039Z,25.98
2017-03-23T03:38:27.811Z,26.13
2017-03-23T03:39:26.624Z,25.33
2017-03-23T03:40:25.811Z,22.78
2017-03-23T03:41:24.638Z,24.27
2017-03-23T03:42:23.475Z,26.32
2017-03-23T03:43:22.261Z,25.03
2017-03-23T03:44:21.082Z,24.70
2017-03-23T03:45:19.466Z,24.80
2017-03-23T03:46:18.196Z,24.38
2017-03-23T03:47:16.990Z,23.32
2017-03-23T03:48:15.363Z,24.63
2017-03-23T03:49:13.811Z,24.68
2017-03-23T03:50:12.575Z,26.10
2017-03-23T03:51:11.389Z,24.30
2017-03-23T03:52:10.168Z,23.85
2017-03-23T03:53:08.594Z,25.45
2017-03-23T03:54:07.380Z,24.45
2017-03-23T03:55:06.171Z,24.80
2017-03-23T03:56:04.941Z,22.33
2017-03-23T03:57:03.764Z,25.13
2017-03-23T03:58:02.498Z,24.03
2017-03-23T03:59:01.288Z,25.95
2017-03-23T04:00:00.071Z,24.53
2017-03-23T04:00:58.468Z,23.70
2017-03-23T04:01:57.268Z,24.55
2017-03-23T04:02:56.083Z,25.08
2017-03-23T04:03:55.257Z,24.80
2017-03-23T04:04:54.019Z,22.95
2017-03-23T04:05:52.792Z,23.65
2017-03-23T04:06:51.560Z,24.18
2017-03-23T04:07:50.377Z,24.62
2017-03-23T04:08:49.169Z,26.93
2017-03-23T04:09:48.328Z,24.87
2017-03-23T04:10:47.120Z,25.17
2017-03-23T04:11:45.940Z,26.08
2017-03-23T04:12:44.737Z,26.42
2017-03-23T04:13:43.528Z,24.58
2017-03-23T04:14:42.292Z,24.72
2017-03-23T04:15:41.404Z,24.10
2017-03-23T04:16:40.187Z,23.55
2017-03-23T04:17:39.006Z,25.80
2017-03-23T04:18:37.784Z,24.40
2017-03-23T04:19:36.160Z,24.92
2017-03-23T04:20:34.984Z,24.43
2017-03-23T04:21:34.175Z,26.48
2017-03-23T04:22:32.995Z,24.22
2017-03-23T04:23:31.834Z,24.12
2017-03-23T04:24:30.619Z,25.48
2017-03-23T04:25:29.433Z,25.13
2017-03-23T04:26:28.583Z,25.48
2017-03-23T04:27:27.251Z,26.03
2017-03-23T04:28:26.035Z,25.02
2017-03-23T04:29:24.815Z,26.00
2017-03-23T04:30:23.613Z,27.17
2017-03-23T04:31:22.423Z,24.73
2017-03-23T04:32:21.249Z,22.57
2017-03-23T04:33:20.437Z,24.83
2017-03-23T04:34:19.223Z,24.98
2017-03-23T04:35:18.023Z,24.05
2017-03-23T04:36:16.796Z,25.02
2017-03-23T04:37:15.580Z,24.40
2017-03-23T04:38:13.974Z,24.50
2017-03-23T04:39:13.100Z,25.28
2017-03-23T04:40:11.885Z,24.72
2017-03-23T04:41:10.693Z,26.35
2017-03-23T04:42:09.448Z,25.30
2017-03-23T04:43:08.237Z,25.33
2017-03-23T04:44:06.642Z,23.48
2017-03-23T04:45:05.776Z,24.98
2017-03-23T04:46:04.607Z,23.00
2017-03-23T04:47:03.390Z,24.08
2017-03-23T04:48:02.202Z,24.02
2017-03-23T04:49:00.979Z,27.80
2017-03-23T04:49:59.814Z,25.95
2017-03-23T04:50:58.950Z,25.05
2017-03-23T04:51:57.731Z,24.73
2017-03-23T04:52:56.506Z,24.47
2017-03-23T04:53:55.325Z,25.47
2017-03-23T04:54:54.119Z,25.22
2017-03-23T04:55:52.966Z,24.72
2017-03-23T04:56:51.680Z,23.72
2017-03-23T04:57:50.523Z,25.85
2017-03-23T04:58:49.689Z,24.83
2017-03-23T04:59:49.175Z,24.57
2017-03-23T05:00:48.025Z,25.17
2017-03-23T05:01:46.812Z,23.30
2017-03-23T05:02:46.015Z,25.12
2017-03-23T05:03:44.849Z,28.73
2017-03-23T05:04:43.651Z,24.65
2017-03-23T05:05:42.061Z,27.13
2017-03-23T05:06:40.496Z,25.82
2017-03-23T05:07:39.291Z,26.08
2017-03-23T05:08:38.390Z,24.52
2017-03-23T05:09:37.209Z,27.95
2017-03-23T05:10:36.080Z,25.57
2017-03-23T05:11:34.465Z,25.97
2017-03-23T05:12:33.249Z,24.67
2017-03-23T05:13:31.629Z,24.53
2017-03-23T05:14:30.751Z,25.02
2017-03-23T05:15:29.521Z,24.10
2017-03-23T05:16:28.311Z,26.98
2017-03-23T05:17:27.122Z,24.78
2017-03-23T05:18:25.898Z,26.08
2017-03-23T05:19:24.663Z,26.47
2017-03-23T05:20:23.732Z,26.53
2017-03-23T05:21:22.147Z,24.83
2017-03-23T05:22:20.543Z,25.85
2017-03-23T05:23:19.399Z,24.98
2017-03-23T05:24:18.183Z,24.47
2017-03-23T05:25:16.949Z,24.43
2017-03-23T05:26:15.656Z,25.30
2017-03-23T05:27:14.415Z,24.65
2017-03-23T05:28:13.196Z,24.20
2017-03-23T05:29:11.964Z,24.45
2017-03-23T05:30:10.743Z,25.73
2017-03-23T05:31:09.512Z,26.68
2017-03-23T05:32:08.947Z,24.83
2017-03-23T05:33:07.722Z,23.13
2017-03-23T05:34:06.497Z,24.77
2017-03-23T05:35:05.313Z,24.58
2017-03-23T05:36:04.114Z,22.18
2017-03-23T05:37:02.982Z,23.27
2017-03-23T05:38:02.127Z,24.17
2017-03-23T05:39:00.880Z,24.70
2017-03-23T05:39:59.662Z,24.55
2017-03-23T05:40:58.477Z,24.43
2017-03-23T05:41:58.331Z,23.38
2017-03-23T05:42:57.164Z,22.53
2017-03-23T05:43:56.219Z,23.70
2017-03-23T05:44:55.027Z,23.53
2017-03-23T05:45:53.786Z,22.92
2017-03-23T05:46:52.595Z,22.87
2017-03-23T05:47:50.951Z,23.50
2017-03-23T05:48:49.763Z,24.83
2017-03-23T05:49:49.310Z,24.22
2017-03-23T05:50:48.097Z,24.03
2017-03-23T05:51:46.876Z,22.97
2017-03-23T05:52:45.659Z,24.55
2017-03-23T05:53:44.426Z,23.87
2017-03-23T05:54:42.851Z,22.88
2017-03-23T05:55:41.515Z,22.32
2017-03-23T05:56:40.269Z,23.65
2017-03-23T05:57:39.010Z,23.22
2017-03-23T05:58:37.751Z,21.80
2017-03-23T05:59:36.528Z,23.47
2017-03-23T06:00:35.299Z,23.28
2017-03-23T06:01:34.349Z,22.83
2017-03-23T06:02:33.110Z,22.73
2017-03-23T06:03:31.857Z,23.25
2017-03-23T06:04:30.599Z,23.90
2017-03-23T06:05:28.983Z,21.87
2017-03-23T06:06:27.768Z,22.40
2017-03-23T06:07:26.891Z,24.28
2017-03-23T06:08:25.672Z,23.25
2017-03-23T06:09:24.447Z,22.93
2017-03-23T06:10:23.223Z,22.92
2017-03-23T06:11:22.007Z,22.67
2017-03-23T06:12:20.795Z,24.33
2017-03-23T06:13:19.914Z,24.28
2017-03-23T06:14:18.679Z,23.87
2017-03-23T06:15:17.458Z,22.33
2017-03-23T06:16:16.236Z,24.70
2017-03-23T06:17:14.631Z,25.52
2017-03-23T06:18:13.387Z,25.10
2017-03-23T06:19:12.433Z,24.42
2017-03-23T06:20:11.219Z,24.40
2017-03-23T06:21:09.984Z,25.57
2017-03-23T06:22:08.769Z,25.73
2017-03-23T06:23:07.535Z,26.63
2017-03-23T06:24:06.297Z,25.15
2017-03-23T06:25:05.404Z,25.18
2017-03-23T06:26:04.183Z,24.92
2017-03-23T06:27:02.996Z,26.05
2017-03-23T06:28:01.921Z,24.98
2017-03-23T06:29:00.687Z,23.42
2017-03-23T06:29:59.482Z,22.72
2017-03-23T06:30:58.529Z,24.15
2017-03-23T06:31:57.330Z,22.10
2017-03-23T06:32:56.078Z,22.50
2017-03-23T06:33:55.228Z,23.35
2017-03-23T06:34:53.988Z,22.62
2017-03-23T06:35:52.389Z,21.97
2017-03-23T06:36:51.470Z,23.30
2017-03-23T06:37:49.825Z,24.52
2017-03-23T06:38:48.604Z,20.80
2017-03-23T06:39:47.432Z,23.85
2017-03-23T06:40:46.204Z,22.45
2017-03-23T06:41:44.594Z,23.35
2017-03-23T06:42:43.712Z,24.93
2017-03-23T06:43:42.501Z,24.07
2017-03-23T06:44:41.271Z,22.45
2017-03-23T06:45:40.024Z,23.60
2017-03-23T06:46:38.797Z,22.72
2017-03-23T06:47:37.538Z,23.70
2017-03-23T06:48:36.905Z,23.42
2017-03-23T06:49:35.691Z,23.63
2017-03-23T06:50:34.529Z,23.28
2017-03-23T06:51:33.203Z,24.77
2017-03-23T06:52:31.980Z,23.25
2017-03-23T06:53:31.069Z,25.87
2017-03-23T06:54:29.765Z,25.73
2017-03-23T06:55:28.539Z,34.18
2017-03-23T06:56:27.353Z,33.27
2017-03-23T06:57:26.124Z,27.62
2017-03-23T06:58:24.511Z,23.30
2017-03-23T06:59:23.305Z,23.43
2017-03-23T07:00:24.031Z,23.75
2017-03-23T07:01:23.481Z,24.90
2017-03-23T07:02:22.278Z,23.63
2017-03-23T07:03:21.072Z,23.05
2017-03-23T07:04:19.438Z,21.43
2017-03-23T07:05:18.291Z,23.28
2017-03-23T07:06:17.039Z,22.53
2017-03-23T07:07:15.883Z,23.38
2017-03-23T07:08:14.707Z,23.55
2017-03-23T07:09:13.471Z,23.28
2017-03-23T07:10:11.848Z,24.17
2017-03-23T07:11:13.620Z,23.95
2017-03-23T07:12:12.783Z,22.95
2017-03-23T07:13:11.643Z,24.17
2017-03-23T07:14:10.405Z,23.47
2017-03-23T07:15:08.796Z,22.95
2017-03-23T07:16:07.148Z,21.90
2017-03-23T07:17:05.914Z,22.78
2017-03-23T07:18:04.695Z,22.93
2017-03-23T07:19:03.475Z,23.15
2017-03-23T07:20:02.254Z,24.00
2017-03-23T07:21:01.048Z,23.28
2017-03-23T07:21:59.827Z,23.98
2017-03-23T07:22:58.643Z,21.43
2017-03-23T07:23:57.711Z,22.45
2017-03-23T07:24:56.523Z,23.28
2017-03-23T07:25:55.288Z,24.22
2017-03-23T07:26:54.075Z,22.70
2017-03-23T07:27:53.645Z,24.48
2017-03-23T07:28:52.804Z,23.13
2017-03-23T07:29:51.919Z,23.47
2017-03-23T07:30:50.711Z,22.50
2017-03-23T07:31:49.524Z,25.88
2017-03-23T07:32:48.624Z,24.67
2017-03-23T07:33:47.363Z,23.37
2017-03-23T07:34:46.264Z,23.35
2017-03-23T07:35:45.339Z,23.05
2017-03-23T07:36:44.112Z,23.52
2017-03-23T07:37:42.965Z,25.37
2017-03-23T07:38:41.745Z,28.05
2017-03-23T07:39:40.510Z,24.07
2017-03-23T07:40:39.271Z,24.80
2017-03-23T07:41:38.395Z,23.50
2017-03-23T07:42:37.137Z,23.57
2017-03-23T07:43:35.887Z,23.55
2017-03-23T07:44:34.631Z,25.08
2017-03-23T07:45:33.412Z,23.45
2017-03-23T07:46:32.168Z,22.65
2017-03-23T07:47:31.219Z,23.48
2017-03-23T07:48:30.084Z,22.07
2017-03-23T07:49:28.506Z,22.53
2017-03-23T07:50:27.284Z,22.33
2017-03-23T07:51:26.095Z,23.53
2017-03-23T07:52:24.880Z,23.35
2017-03-23T07:53:24.023Z,22.25
2017-03-23T07:54:22.879Z,22.45
2017-03-23T07:55:21.271Z,24.03
2017-03-23T07:56:19.676Z,23.05
2017-03-23T07:57:18.432Z,23.53
2017-03-23T07:58:16.792Z,24.52
2017-03-23T07:59:15.819Z,23.05
2017-03-23T08:00:14.733Z,23.67
2017-03-23T08:01:13.600Z,21.63
2017-03-23T08:02:13.669Z,22.23
2017-03-23T08:03:12.488Z,23.33
2017-03-23T08:04:11.575Z,24.13
2017-03-23T08:05:10.288Z,23.13
2017-03-23T08:06:09.149Z,23.65
2017-03-23T08:07:07.974Z,22.95
2017-03-23T08:08:07.108Z,23.43
2017-03-23T08:09:07.079Z,23.12
2017-03-23T08:10:05.947Z,22.18
2017-03-23T08:11:05.036Z,24.57
2017-03-23T08:12:04.183Z,22.78
2017-03-23T08:13:03.079Z,22.42
2017-03-23T08:14:01.973Z,21.97
2017-03-23T08:15:00.758Z,21.70
2017-03-23T08:15:59.563Z,23.70
2017-03-23T08:16:58.790Z,23.63
2017-03-23T08:17:57.579Z,23.60
2017-03-23T08:18:56.407Z,23.48
2017-03-23T08:19:55.175Z,22.25
2017-03-23T08:20:53.940Z,21.82
2017-03-23T08:21:53.098Z,21.82
2017-03-23T08:22:52.172Z,22.85
2017-03-23T08:23:50.915Z,22.47
2017-03-23T08:24:49.692Z,22.58
2017-03-23T08:25:48.453Z,23.67
2017-03-23T08:26:46.852Z,23.32
2017-03-23T08:27:45.618Z,22.38
2017-03-23T08:28:44.742Z,22.47
2017-03-23T08:29:43.503Z,22.68
2017-03-23T08:30:42.292Z,22.33
2017-03-23T08:31:41.096Z,22.68
2017-03-23T08:32:39.864Z,21.72
2017-03-23T08:33:38.626Z,21.38
2017-03-23T08:34:37.675Z,21.92
2017-03-23T08:35:36.469Z,21.97
2017-03-23T08:36:35.251Z,21.85
2017-03-23T08:37:34.048Z,20.95
2017-03-23T08:38:32.820Z,23.38
2017-03-23T08:39:31.623Z,22.53
2017-03-23T08:40:30.691Z,23.25
2017-03-23T08:41:30.102Z,22.67
2017-03-23T08:42:28.953Z,21.25
2017-03-23T08:43:27.781Z,21.60
2017-03-23T08:44:27.001Z,22.77
2017-03-23T08:45:25.446Z,22.00
2017-03-23T08:46:24.610Z,22.52
2017-03-23T08:47:23.470Z,21.00
2017-03-23T08:48:22.269Z,22.60
2017-03-23T08:49:21.467Z,23.22
2017-03-23T08:50:19.912Z,22.05
2017-03-23T08:51:18.753Z,22.02
2017-03-23T08:52:18.297Z,21.58
2017-03-23T08:53:17.124Z,21.95
2017-03-23T08:54:15.578Z,23.75
2017-03-23T08:55:14.413Z,22.80
2017-03-23T08:56:13.241Z,20.98
2017-03-23T08:57:12.164Z,21.15
2017-03-23T08:58:11.385Z,22.53
2017-03-23T08:59:09.838Z,23.43
2017-03-23T09:00:08.709Z,22.00
2017-03-23T09:01:07.553Z,22.17
2017-03-23T09:02:07.488Z,22.60
2017-03-23T09:03:06.384Z,21.45
2017-03-23T09:04:05.571Z,21.78
2017-03-23T09:05:04.402Z,24.87
2017-03-23T09:06:02.949Z,23.77
2017-03-23T09:07:01.796Z,20.80
2017-03-23T09:08:02.669Z,21.05
2017-03-23T09:09:01.571Z,22.63
2017-03-23T09:10:00.799Z,22.03
2017-03-23T09:10:59.715Z,22.20
2017-03-23T09:11:58.542Z,21.38
2017-03-23T09:12:57.467Z,21.75
2017-03-23T09:13:56.290Z,20.93
2017-03-23T09:14:55.159Z,22.17
2017-03-23T09:15:54.222Z,22.80
2017-03-23T09:16:53.375Z,21.77
2017-03-23T09:17:52.230Z,21.70
2017-03-23T09:18:51.036Z,22.02
2017-03-23T09:19:49.890Z,21.78
2017-03-23T09:20:48.741Z,22.95
2017-03-23T09:21:47.968Z,24.15
2017-03-23T09:22:46.820Z,22.73
2017-03-23T09:23:45.644Z,20.90
2017-03-23T09:24:44.539Z,23.08
2017-03-23T09:25:43.015Z,23.98
2017-03-23T09:26:41.830Z,23.15
2017-03-23T09:27:41.052Z,22.57
2017-03-23T09:28:39.890Z,22.77
2017-03-23T09:29:38.778Z,21.62
2017-03-23T09:30:37.671Z,22.15
2017-03-23T09:31:43.194Z,22.07
2017-03-23T09:32:42.412Z,23.97
2017-03-23T09:33:41.290Z,23.00
2017-03-23T09:34:40.125Z,22.22
2017-03-23T09:35:38.931Z,22.43
2017-03-23T09:36:37.424Z,22.35
2017-03-23T09:37:36.271Z,23.05
2017-03-23T09:38:35.397Z,24.00
2017-03-23T09:39:34.226Z,22.33
2017-03-23T09:40:32.779Z,21.45
2017-03-23T09:41:31.210Z,22.27
2017-03-23T09:42:30.052Z,23.63
2017-03-23T09:43:28.697Z,23.10
2017-03-23T09:44:27.841Z,22.77
2017-03-23T09:45:26.697Z,26.27
2017-03-23T09:46:25.560Z,22.72
2017-03-23T09:47:24.495Z,23.40
2017-03-23T09:48:23.353Z,22.53
2017-03-23T09:49:22.184Z,23.65
2017-03-23T09:50:21.441Z,21.43
2017-03-23T09:51:20.288Z,22.85
2017-03-23T09:52:19.106Z,21.13
2017-03-23T09:53:17.948Z,23.28
2017-03-23T09:54:17.047Z,21.70
2017-03-23T09:55:15.878Z,22.08
2017-03-23T09:56:15.035Z,22.58
2017-03-23T09:57:13.921Z,23.55
2017-03-23T09:58:12.794Z,21.63
2017-03-23T09:59:11.508Z,19.72
2017-03-23T10:00:10.008Z,23.62
2017-03-23T10:01:08.466Z,19.82
2017-03-23T10:02:07.287Z,21.92
2017-03-23T10:03:06.250Z,23.70
2017-03-23T10:04:05.116Z,22.02
2017-03-23T10:05:04.014Z,22.50
2017-03-23T10:06:02.913Z,22.28
2017-03-23T10:07:01.775Z,21.45
2017-03-23T10:08:00.983Z,23.08
2017-03-23T10:08:59.432Z,20.60
2017-03-23T10:09:58.305Z,22.68
2017-03-23T10:10:57.165Z,23.98
2017-03-23T10:11:57.119Z,22.08
2017-03-23T10:12:55.961Z,21.98
2017-03-23T10:13:55.176Z,23.43
2017-03-23T10:14:54.021Z,22.97
2017-03-23T10:15:52.497Z,24.13
2017-03-23T10:16:51.312Z,22.90
2017-03-23T10:17:50.132Z,22.28
2017-03-23T10:18:49.121Z,22.75
2017-03-23T10:19:48.472Z,24.50
2017-03-23T10:20:47.345Z,22.63
2017-03-23T10:21:46.195Z,27.10
2017-03-23T10:22:45.030Z,22.28
2017-03-23T10:23:43.851Z,30.82
2017-03-23T10:24:42.695Z,23.95
2017-03-23T10:25:41.480Z,23.78
2017-03-23T10:26:39.896Z,23.58
2017-03-23T10:27:38.725Z,21.23
2017-03-23T10:28:37.585Z,20.18
2017-03-23T10:29:36.058Z,25.43
2017-03-23T10:30:34.882Z,24.68
2017-03-23T10:31:34.007Z,20.90
2017-03-23T10:32:32.495Z,20.50
2017-03-23T10:33:31.392Z,23.15
2017-03-23T10:34:30.211Z,18.48
2017-03-23T10:35:29.052Z,21.38
2017-03-23T10:36:27.885Z,22.67
2017-03-23T10:37:27.188Z,20.68
2017-03-23T10:38:25.724Z,18.38
2017-03-23T10:39:24.565Z,18.65
2017-03-23T10:40:23.437Z,19.20
2017-03-23T10:41:22.305Z,19.17
2017-03-23T10:42:21.193Z,19.07
2017-03-23T10:43:19.962Z,19.02
2017-03-23T10:44:18.789Z,20.03
2017-03-23T10:45:17.644Z,19.32
2017-03-23T10:46:16.524Z,19.55
2017-03-23T10:47:15.360Z,19.08
2017-03-23T10:48:14.190Z,18.20
2017-03-23T10:49:13.341Z,20.62
2017-03-23T10:50:12.157Z,21.65
2017-03-23T10:51:10.594Z,19.97
2017-03-23T10:52:09.054Z,19.97
2017-03-23T10:53:07.921Z,19.73
2017-03-23T10:54:06.734Z,18.33
2017-03-23T10:55:05.900Z,19.02
2017-03-23T10:56:04.757Z,19.03
2017-03-23T10:57:03.645Z,19.62
2017-03-23T10:58:02.516Z,19.28
2017-03-23T10:59:01.418Z,19.77
2017-03-23T11:00:00.257Z,18.75
2017-03-23T11:00:59.481Z,19.05
2017-03-23T11:01:58.365Z,19.45
2017-03-23T11:02:57.213Z,21.48
2017-03-23T11:03:56.086Z,21.28
2017-03-23T11:04:54.956Z,20.33
2017-03-23T11:05:53.793Z,19.77
2017-03-23T11:06:52.986Z,18.03
2017-03-23T11:07:52.187Z,17.92
2017-03-23T11:08:51.064Z,19.18
2017-03-23T11:09:49.532Z,18.02
2017-03-23T11:10:48.421Z,18.82
2017-03-23T11:11:47.231Z,19.88
2017-03-23T11:12:46.358Z,19.55
2017-03-23T11:13:44.796Z,19.72
2017-03-23T11:14:43.649Z,18.97
2017-03-23T11:15:42.506Z,19.27
2017-03-23T11:16:41.357Z,16.63
2017-03-23T11:17:39.836Z,17.52
2017-03-23T11:18:38.967Z,17.40
2017-03-23T11:19:37.808Z,17.12
2017-03-23T11:20:37.014Z,17.30
2017-03-23T11:21:36.253Z,19.13
2017-03-23T11:22:35.156Z,15.72
2017-03-23T11:23:34.004Z,16.33
2017-03-23T11:24:33.225Z,16.08
2017-03-23T11:25:32.136Z,16.55
2017-03-23T11:26:31.005Z,16.78
2017-03-23T11:27:29.872Z,16.83
2017-03-23T11:28:28.333Z,17.60
2017-03-23T11:29:26.871Z,18.32
2017-03-23T11:30:26.020Z,17.48
2017-03-23T11:31:24.903Z,18.03
2017-03-23T11:32:23.804Z,16.77
2017-03-23T11:33:22.661Z,18.43
2017-03-23T11:34:21.133Z,19.13
2017-03-23T11:35:19.611Z,19.30
2017-03-23T11:36:18.326Z,17.33
2017-03-23T11:37:17.172Z,19.43
2017-03-23T11:38:16.014Z,19.12
2017-03-23T11:39:14.849Z,18.00
2017-03-23T11:40:13.317Z,16.78
2017-03-23T11:41:12.136Z,18.08
2017-03-23T11:42:11.317Z,17.05
2017-03-23T11:43:12.402Z,18.55
2017-03-23T11:44:10.816Z,15.25
2017-03-23T11:45:09.833Z,14.65
2017-03-23T11:46:08.653Z,16.83
2017-03-23T11:47:07.400Z,14.48
2017-03-23T11:48:06.131Z,16.42
2017-03-23T11:49:04.895Z,14.82
2017-03-23T11:50:03.652Z,14.80
2017-03-23T11:51:02.443Z,15.92
2017-03-23T11:52:01.252Z,15.98
2017-03-23T11:52:59.641Z,16.60
2017-03-23T11:53:59.111Z,15.43
2017-03-23T11:54:57.907Z,16.00
2017-03-23T11:55:56.652Z,17.97
2017-03-23T11:56:55.420Z,15.15
2017-03-23T11:57:54.181Z,15.15
2017-03-23T11:58:52.943Z,15.07
2017-03-23T11:59:52.082Z,14.97
2017-03-23T12:00:50.842Z,15.22
2017-03-23T12:01:50.372Z,16.88
2017-03-23T12:02:49.136Z,17.10
2017-03-23T12:03:47.908Z,15.15
2017-03-23T12:04:47.145Z,17.20
2017-03-23T12:05:46.093Z,16.65
2017-03-23T12:06:44.867Z,16.68
2017-03-23T12:07:43.765Z,17.95
2017-03-23T12:08:42.588Z,18.28
2017-03-23T12:09:41.364Z,17.70
2017-03-23T12:10:40.159Z,16.55
2017-03-23T12:11:41.806Z,18.23
2017-03-23T12:12:40.816Z,17.28
2017-03-23T12:13:39.608Z,17.12
2017-03-23T12:14:39.700Z,18.45
2017-03-23T12:15:38.461Z,16.88
2017-03-23T12:16:37.598Z,15.47
2017-03-23T12:17:36.755Z,17.65
2017-03-23T12:18:35.507Z,16.87
2017-03-23T12:19:34.298Z,15.53
2017-03-23T12:20:33.055Z,15.93
2017-03-23T12:21:31.448Z,17.68
2017-03-23T12:22:30.224Z,15.78
2017-03-23T12:23:29.407Z,16.52
2017-03-23T12:24:28.264Z,17.32
2017-03-23T12:25:27.112Z,16.23
2017-03-23T12:26:25.915Z,15.78
2017-03-23T12:27:24.707Z,16.78
2017-03-23T12:28:23.485Z,14.55
2017-03-23T12:29:22.601Z,14.28
2017-03-23T12:30:21.411Z,15.80
2017-03-23T12:31:20.184Z,17.92
2017-03-23T12:32:19.087Z,16.13
2017-03-23T12:33:17.877Z,15.53
2017-03-23T12:34:16.643Z,15.50
2017-03-23T12:35:15.767Z,15.70
2017-03-23T12:36:14.599Z,14.37
2017-03-23T12:37:13.371Z,14.77
2017-03-23T12:38:12.144Z,15.93
2017-03-23T12:39:10.930Z,15.75